Surabaya Perak, Indonesia

10:42 AM WIB on September 04, 2015 (GMT +0700)
Juanda | | Change Station
CLOSE
Current Station
Airport
Location: Juanda,
Elevation: 10 ft
Nearby Weather Stations

Elev 10 ft 7.38 °S, 112.79 °E | Updated 12 minutes ago

Partly Cloudy
Mendung Sebagian
86 °F
Feels Like 87 °F
N
12
Angin Variable Angin from Dari Timur ke Tenggara

Siang Ini
High -- | Low -- °F
--% Chance of Precip.
Yesterday
High -- | Low -- °F
Precip. -- Inch
5:28 AM 5:27 PM
Waning Gibbous, 64% visible
Tekanan 29.95 Inch
Jarak Pandang 6.2 Mil
Awan Few 2000 ft
Ideks Panas 87 °F
Titik Embun 64 °F
Kelembaban 48%
Rainfall 0.00 Inch
Snow Depth Not available.
UV 11 out of 12
Pollen Not available.
Air Quality Not available.
Flu Activity Not available.
METAR WARR 040330Z 12010KT 9999 FEW020 30/18 Q1014
Tekanan 29.95 Inch
Jarak Pandang 6.2 Mil
Awan Few 2000 ft
Ideks Panas 87 °F
Titik Embun 64 °F
Kelembaban 48%
Rainfall 0.00 Inch
Snow Depth Not available.
UV 11 out of 12
Pollen Not available.
Air Quality Not available.
Flu Activity Not available.
METAR WARR 040330Z 12010KT 9999 FEW020 30/18 Q1014

10-Day Weather Forecast

×

Almanac

Astronomi

Sep. 04, 2015 Rise Set
Actual Time
Civil Twilight
Nautical Twilight
Astronomical Twilight
Moon
Length Of Visible Light
Lama Satu Hari
Tomorrow will be .
, % of the Moon is Illuminated

Today's Extremes

Country Highs Country Lows

Community

WunderPhotos

Upload Photos

1,852,118 photos uploaded!

WunderBlogs® & News

Nearby

Air Quality

  Air Quality AQ Index Pollutant
Not available.

Snow Depth

Station Depth Elevation

Earthquake Activity

City Distance Mag. Time & Date
Minimum magnitude displayed is 2.5.

Coastal Water Temperatures

Lokasi Temperatur

Stations

Nearby Weather Stations

Station Location Temp Angin Dingin Titik Embun Kelembaban Angin Precip. Elev Telah Diperbaharui Type